sensor_id;sensor_type;location;lat;lon;timestamp;P1;durP1;ratioP1;P2;durP2;ratioP2
59416;SDS011;45222;52.458;20.914;2024-03-25T00:01:38;28.30;;;22.40;;
59416;SDS011;45222;52.458;20.914;2024-03-25T00:05:23;26.80;;;20.90;;
59416;SDS011;45222;52.458;20.914;2024-03-25T00:09:09;26.80;;;20.50;;
59416;SDS011;45222;52.458;20.914;2024-03-25T00:12:57;28.20;;;13.60;;
59416;SDS011;45222;52.458;20.914;2024-03-25T00:16:42;38.00;;;26.00;;
59416;SDS011;45222;52.458;20.914;2024-03-25T00:20:26;38.40;;;28.50;;
59416;SDS011;45222;52.458;20.914;2024-03-25T00:24:11;36.90;;;26.30;;
59416;SDS011;45222;52.458;20.914;2024-03-25T00:27:55;37.30;;;28.80;;
59416;SDS011;45222;52.458;20.914;2024-03-25T00:31:41;38.00;;;27.20;;
59416;SDS011;45222;52.458;20.914;2024-03-25T00:35:25;34.10;;;24.70;;
59416;SDS011;45222;52.458;20.914;2024-03-25T00:39:10;32.80;;;25.00;;
59416;SDS011;45222;52.458;20.914;2024-03-25T00:42:55;37.20;;;26.60;;
59416;SDS011;45222;52.458;20.914;2024-03-25T00:46:39;33.90;;;25.00;;
59416;SDS011;45222;52.458;20.914;2024-03-25T00:50:25;27.80;;;13.20;;
59416;SDS011;45222;52.458;20.914;2024-03-25T00:54:09;25.90;;;20.80;;
59416;SDS011;45222;52.458;20.914;2024-03-25T00:57:54;24.80;;;18.90;;
59416;SDS011;45222;52.458;20.914;2024-03-25T01:01:38;24.40;;;19.30;;
59416;SDS011;45222;52.458;20.914;2024-03-25T01:05:23;24.60;;;18.30;;
59416;SDS011;45222;52.458;20.914;2024-03-25T01:09:07;22.40;;;18.20;;
59416;SDS011;45222;52.458;20.914;2024-03-25T01:12:53;22.50;;;18.20;;
59416;SDS011;45222;52.458;20.914;2024-03-25T01:16:37;24.70;;;19.50;;
59416;SDS011;45222;52.458;20.914;2024-03-25T01:20:22;23.50;;;16.60;;
59416;SDS011;45222;52.458;20.914;2024-03-25T01:24:06;24.20;;;18.40;;
59416;SDS011;45222;52.458;20.914;2024-03-25T01:27:51;21.50;;;17.20;;
59416;SDS011;45222;52.458;20.914;2024-03-25T01:31:35;23.10;;;18.00;;
59416;SDS011;45222;52.458;20.914;2024-03-25T01:35:20;23.60;;;18.10;;
59416;SDS011;45222;52.458;20.914;2024-03-25T01:39:23;24.10;;;19.30;;
59416;SDS011;45222;52.458;20.914;2024-03-25T01:43:26;22.70;;;16.70;;
59416;SDS011;45222;52.458;20.914;2024-03-25T01:47:30;21.70;;;16.60;;
59416;SDS011;45222;52.458;20.914;2024-03-25T01:51:17;22.70;;;17.80;;
59416;SDS011;45222;52.458;20.914;2024-03-25T01:55:04;24.70;;;18.10;;
59416;SDS011;45222;52.458;20.914;2024-03-25T01:58:51;24.40;;;18.30;;
59416;SDS011;45222;52.458;20.914;2024-03-25T02:02:36;21.80;;;16.80;;
59416;SDS011;45222;52.458;20.914;2024-03-25T02:06:25;21.70;;;16.50;;
59416;SDS011;45222;52.458;20.914;2024-03-25T02:10:11;21.00;;;16.10;;
59416;SDS011;45222;52.458;20.914;2024-03-25T02:13:57;22.40;;;10.80;;
59416;SDS011;45222;52.458;20.914;2024-03-25T02:17:42;21.10;;;17.10;;
59416;SDS011;45222;52.458;20.914;2024-03-25T02:21:27;21.30;;;17.10;;
59416;SDS011;45222;52.458;20.914;2024-03-25T02:25:11;21.30;;;16.40;;
59416;SDS011;45222;52.458;20.914;2024-03-25T02:28:59;20.60;;;17.20;;
59416;SDS011;45222;52.458;20.914;2024-03-25T02:32:45;21.00;;;16.00;;
59416;SDS011;45222;52.458;20.914;2024-03-25T02:36:30;22.70;;;15.70;;
59416;SDS011;45222;52.458;20.914;2024-03-25T02:40:15;18.50;;;14.80;;
59416;SDS011;45222;52.458;20.914;2024-03-25T02:43:59;22.60;;;16.40;;
59416;SDS011;45222;52.458;20.914;2024-03-25T02:47:45;21.00;;;17.30;;
59416;SDS011;45222;52.458;20.914;2024-03-25T02:51:30;21.70;;;17.50;;
59416;SDS011;45222;52.458;20.914;2024-03-25T02:55:14;20.60;;;17.60;;
59416;SDS011;45222;52.458;20.914;2024-03-25T02:58:59;20.10;;;16.30;;
59416;SDS011;45222;52.458;20.914;2024-03-25T03:02:43;19.70;;;15.70;;
59416;SDS011;45222;52.458;20.914;2024-03-25T03:06:28;19.90;;;14.80;;
59416;SDS011;45222;52.458;20.914;2024-03-25T03:10:12;22.10;;;16.60;;
59416;SDS011;45222;52.458;20.914;2024-03-25T03:13:59;21.20;;;16.60;;
59416;SDS011;45222;52.458;20.914;2024-03-25T03:17:43;20.40;;;16.50;;
59416;SDS011;45222;52.458;20.914;2024-03-25T03:21:28;21.90;;;16.60;;
59416;SDS011;45222;52.458;20.914;2024-03-25T03:25:13;20.60;;;14.50;;
59416;SDS011;45222;52.458;20.914;2024-03-25T03:29:00;17.90;;;13.90;;
59416;SDS011;45222;52.458;20.914;2024-03-25T03:32:44;18.70;;;9.00;;
59416;SDS011;45222;52.458;20.914;2024-03-25T03:36:29;19.50;;;14.60;;
59416;SDS011;45222;52.458;20.914;2024-03-25T03:40:13;19.40;;;14.90;;
59416;SDS011;45222;52.458;20.914;2024-03-25T03:43:58;20.10;;;15.60;;
59416;SDS011;45222;52.458;20.914;2024-03-25T03:47:43;21.50;;;17.10;;
59416;SDS011;45222;52.458;20.914;2024-03-25T03:51:27;21.10;;;15.20;;
59416;SDS011;45222;52.458;20.914;2024-03-25T03:55:12;21.80;;;9.30;;
59416;SDS011;45222;52.458;20.914;2024-03-25T03:58:57;17.70;;;14.20;;
59416;SDS011;45222;52.458;20.914;2024-03-25T04:02:41;21.50;;;15.00;;
59416;SDS011;45222;52.458;20.914;2024-03-25T04:06:26;21.70;;;15.90;;
59416;SDS011;45222;52.458;20.914;2024-03-25T04:10:10;21.30;;;17.50;;
59416;SDS011;45222;52.458;20.914;2024-03-25T04:13:55;21.50;;;16.70;;
59416;SDS011;45222;52.458;20.914;2024-03-25T04:17:39;19.60;;;15.30;;
59416;SDS011;45222;52.458;20.914;2024-03-25T04:21:24;21.10;;;15.30;;
59416;SDS011;45222;52.458;20.914;2024-03-25T04:25:08;19.10;;;14.20;;
59416;SDS011;45222;52.458;20.914;2024-03-25T04:28:54;19.20;;;15.40;;
59416;SDS011;45222;52.458;20.914;2024-03-25T04:32:39;19.90;;;15.50;;
59416;SDS011;45222;52.458;20.914;2024-03-25T04:36:23;21.80;;;17.10;;
59416;SDS011;45222;52.458;20.914;2024-03-25T04:40:09;25.50;;;18.30;;
59416;SDS011;45222;52.458;20.914;2024-03-25T04:43:57;20.30;;;15.90;;
59416;SDS011;45222;52.458;20.914;2024-03-25T04:47:42;21.00;;;15.80;;
59416;SDS011;45222;52.458;20.914;2024-03-25T04:51:27;19.80;;;15.10;;
59416;SDS011;45222;52.458;20.914;2024-03-25T04:55:12;20.50;;;16.40;;
59416;SDS011;45222;52.458;20.914;2024-03-25T04:58:56;23.20;;;17.50;;
59416;SDS011;45222;52.458;20.914;2024-03-25T05:02:44;21.00;;;18.00;;
59416;SDS011;45222;52.458;20.914;2024-03-25T05:06:29;21.00;;;17.00;;
59416;SDS011;45222;52.458;20.914;2024-03-25T05:10:13;25.90;;;11.80;;
59416;SDS011;45222;52.458;20.914;2024-03-25T05:13:58;23.60;;;17.40;;
59416;SDS011;45222;52.458;20.914;2024-03-25T05:17:43;22.00;;;18.00;;
59416;SDS011;45222;52.458;20.914;2024-03-25T05:21:27;26.40;;;20.60;;
59416;SDS011;45222;52.458;20.914;2024-03-25T05:25:12;24.50;;;20.30;;
59416;SDS011;45222;52.458;20.914;2024-03-25T05:28:57;23.20;;;18.90;;
59416;SDS011;45222;52.458;20.914;2024-03-25T05:32:41;23.20;;;18.10;;
59416;SDS011;45222;52.458;20.914;2024-03-25T05:36:26;23.20;;;17.70;;
59416;SDS011;45222;52.458;20.914;2024-03-25T05:40:11;23.60;;;17.90;;
59416;SDS011;45222;52.458;20.914;2024-03-25T05:43:56;23.50;;;19.10;;
59416;SDS011;45222;52.458;20.914;2024-03-25T05:47:40;22.90;;;19.10;;
59416;SDS011;45222;52.458;20.914;2024-03-25T05:51:25;22.80;;;17.90;;
59416;SDS011;45222;52.458;20.914;2024-03-25T05:55:10;22.40;;;17.30;;
59416;SDS011;45222;52.458;20.914;2024-03-25T05:58:54;22.90;;;16.80;;
59416;SDS011;45222;52.458;20.914;2024-03-25T06:02:39;21.90;;;16.60;;
59416;SDS011;45222;52.458;20.914;2024-03-25T06:06:23;21.30;;;17.80;;
59416;SDS011;45222;52.458;20.914;2024-03-25T06:10:09;22.70;;;19.20;;
59416;SDS011;45222;52.458;20.914;2024-03-25T06:13:53;24.10;;;19.80;;
59416;SDS011;45222;52.458;20.914;2024-03-25T06:17:38;23.80;;;18.50;;
59416;SDS011;45222;52.458;20.914;2024-03-25T06:21:23;22.40;;;17.40;;
59416;SDS011;45222;52.458;20.914;2024-03-25T06:25:07;23.10;;;18.10;;
59416;SDS011;45222;52.458;20.914;2024-03-25T06:28:52;22.90;;;18.60;;
59416;SDS011;45222;52.458;20.914;2024-03-25T06:32:37;25.70;;;21.70;;
59416;SDS011;45222;52.458;20.914;2024-03-25T06:36:45;29.10;;;15.30;;
59416;SDS011;45222;52.458;20.914;2024-03-25T06:40:31;24.20;;;20.60;;
59416;SDS011;45222;52.458;20.914;2024-03-25T06:44:15;24.30;;;19.30;;
59416;SDS011;45222;52.458;20.914;2024-03-25T06:48:00;22.80;;;18.30;;
59416;SDS011;45222;52.458;20.914;2024-03-25T06:51:44;21.40;;;18.40;;
59416;SDS011;45222;52.458;20.914;2024-03-25T06:55:29;21.70;;;15.80;;
59416;SDS011;45222;52.458;20.914;2024-03-25T06:59:13;20.50;;;13.40;;
59416;SDS011;45222;52.458;20.914;2024-03-25T07:02:58;18.30;;;13.20;;
59416;SDS011;45222;52.458;20.914;2024-03-25T07:06:42;17.60;;;13.30;;
59416;SDS011;45222;52.458;20.914;2024-03-25T07:10:26;16.10;;;11.70;;
59416;SDS011;45222;52.458;20.914;2024-03-25T07:14:11;16.10;;;11.80;;
59416;SDS011;45222;52.458;20.914;2024-03-25T07:17:56;15.30;;;11.10;;
59416;SDS011;45222;52.458;20.914;2024-03-25T07:21:41;16.70;;;11.30;;
59416;SDS011;45222;52.458;20.914;2024-03-25T07:25:25;18.80;;;11.10;;
59416;SDS011;45222;52.458;20.914;2024-03-25T07:29:10;15.40;;;10.50;;
59416;SDS011;45222;52.458;20.914;2024-03-25T07:32:54;15.30;;;11.10;;
59416;SDS011;45222;52.458;20.914;2024-03-25T07:36:39;14.10;;;10.90;;
59416;SDS011;45222;52.458;20.914;2024-03-25T07:40:23;15.40;;;11.20;;
59416;SDS011;45222;52.458;20.914;2024-03-25T07:44:08;14.40;;;9.90;;
59416;SDS011;45222;52.458;20.914;2024-03-25T07:47:52;13.80;;;9.40;;
59416;SDS011;45222;52.458;20.914;2024-03-25T07:51:38;13.40;;;9.50;;
59416;SDS011;45222;52.458;20.914;2024-03-25T07:55:23;13.20;;;9.30;;
59416;SDS011;45222;52.458;20.914;2024-03-25T07:59:07;12.30;;;8.80;;
59416;SDS011;45222;52.458;20.914;2024-03-25T08:02:52;13.60;;;9.80;;
59416;SDS011;45222;52.458;20.914;2024-03-25T08:06:36;12.20;;;9.30;;
59416;SDS011;45222;52.458;20.914;2024-03-25T08:10:21;15.60;;;9.90;;
59416;SDS011;45222;52.458;20.914;2024-03-25T08:14:05;14.50;;;10.20;;
59416;SDS011;45222;52.458;20.914;2024-03-25T08:17:50;13.30;;;10.20;;
59416;SDS011;45222;52.458;20.914;2024-03-25T08:21:35;13.80;;;10.70;;
59416;SDS011;45222;52.458;20.914;2024-03-25T08:25:19;14.00;;;8.70;;
59416;SDS011;45222;52.458;20.914;2024-03-25T08:29:04;11.50;;;7.80;;
59416;SDS011;45222;52.458;20.914;2024-03-25T08:32:49;12.00;;;7.70;;
59416;SDS011;45222;52.458;20.914;2024-03-25T08:36:33;12.10;;;7.50;;
59416;SDS011;45222;52.458;20.914;2024-03-25T08:40:18;11.30;;;7.50;;
59416;SDS011;45222;52.458;20.914;2024-03-25T08:44:02;10.80;;;7.60;;
59416;SDS011;45222;52.458;20.914;2024-03-25T08:47:47;10.40;;;6.90;;
59416;SDS011;45222;52.458;20.914;2024-03-25T08:51:32;11.40;;;7.40;;
59416;SDS011;45222;52.458;20.914;2024-03-25T08:55:17;11.10;;;7.40;;
59416;SDS011;45222;52.458;20.914;2024-03-25T08:59:02;11.00;;;7.20;;
59416;SDS011;45222;52.458;20.914;2024-03-25T09:02:46;10.70;;;7.60;;
59416;SDS011;45222;52.458;20.914;2024-03-25T09:06:31;9.40;;;6.90;;
59416;SDS011;45222;52.458;20.914;2024-03-25T09:10:16;11.50;;;6.50;;
59416;SDS011;45222;52.458;20.914;2024-03-25T09:14:19;9.20;;;6.10;;
59416;SDS011;45222;52.458;20.914;2024-03-25T09:18:04;10.10;;;6.70;;
59416;SDS011;45222;52.458;20.914;2024-03-25T09:21:49;9.60;;;6.30;;
59416;SDS011;45222;52.458;20.914;2024-03-25T09:25:34;8.50;;;5.90;;
59416;SDS011;45222;52.458;20.914;2024-03-25T09:29:18;8.80;;;5.50;;
59416;SDS011;45222;52.458;20.914;2024-03-25T09:33:03;8.70;;;5.50;;
59416;SDS011;45222;52.458;20.914;2024-03-25T09:36:48;8.50;;;5.50;;
59416;SDS011;45222;52.458;20.914;2024-03-25T09:40:32;8.60;;;5.90;;
59416;SDS011;45222;52.458;20.914;2024-03-25T09:44:21;9.60;;;5.60;;
59416;SDS011;45222;52.458;20.914;2024-03-25T09:48:08;7.60;;;5.10;;
59416;SDS011;45222;52.458;20.914;2024-03-25T09:51:53;7.60;;;4.90;;
59416;SDS011;45222;52.458;20.914;2024-03-25T09:55:37;7.10;;;3.50;;
59416;SDS011;45222;52.458;20.914;2024-03-25T09:59:22;6.40;;;3.20;;
59416;SDS011;45222;52.458;20.914;2024-03-25T10:03:07;8.70;;;3.90;;
59416;SDS011;45222;52.458;20.914;2024-03-25T10:06:52;6.20;;;3.60;;
59416;SDS011;45222;52.458;20.914;2024-03-25T10:10:37;7.80;;;4.30;;
59416;SDS011;45222;52.458;20.914;2024-03-25T10:14:21;9.40;;;4.00;;
59416;SDS011;45222;52.458;20.914;2024-03-25T10:18:06;6.20;;;3.10;;
59416;SDS011;45222;52.458;20.914;2024-03-25T10:22:01;10.90;;;5.10;;
59416;SDS011;45222;52.458;20.914;2024-03-25T10:25:47;13.10;;;8.30;;
59416;SDS011;45222;52.458;20.914;2024-03-25T10:29:32;7.30;;;4.00;;
59416;SDS011;45222;52.458;20.914;2024-03-25T10:33:17;8.30;;;4.30;;
59416;SDS011;45222;52.458;20.914;2024-03-25T10:37:01;8.00;;;4.60;;
59416;SDS011;45222;52.458;20.914;2024-03-25T10:40:48;8.10;;;4.20;;
59416;SDS011;45222;52.458;20.914;2024-03-25T10:44:35;8.50;;;5.00;;
59416;SDS011;45222;52.458;20.914;2024-03-25T10:48:21;8.80;;;6.20;;
59416;SDS011;45222;52.458;20.914;2024-03-25T10:52:11;8.40;;;5.10;;
59416;SDS011;45222;52.458;20.914;2024-03-25T10:55:56;9.10;;;5.20;;
59416;SDS011;45222;52.458;20.914;2024-03-25T10:59:41;7.30;;;4.70;;
59416;SDS011;45222;52.458;20.914;2024-03-25T11:03:27;7.70;;;4.80;;
59416;SDS011;45222;52.458;20.914;2024-03-25T11:07:13;8.30;;;4.60;;
59416;SDS011;45222;52.458;20.914;2024-03-25T11:10:58;8.50;;;4.90;;
59416;SDS011;45222;52.458;20.914;2024-03-25T11:14:43;9.70;;;4.90;;
59416;SDS011;45222;52.458;20.914;2024-03-25T11:18:28;7.30;;;4.20;;
59416;SDS011;45222;52.458;20.914;2024-03-25T11:22:14;8.40;;;4.80;;
59416;SDS011;45222;52.458;20.914;2024-03-25T11:25:59;8.60;;;5.00;;
59416;SDS011;45222;52.458;20.914;2024-03-25T11:29:44;10.20;;;5.50;;
59416;SDS011;45222;52.458;20.914;2024-03-25T11:33:28;8.90;;;5.10;;
59416;SDS011;45222;52.458;20.914;2024-03-25T11:37:13;9.30;;;5.40;;
59416;SDS011;45222;52.458;20.914;2024-03-25T11:40:57;8.50;;;5.30;;
59416;SDS011;45222;52.458;20.914;2024-03-25T11:44:42;11.00;;;4.80;;
59416;SDS011;45222;52.458;20.914;2024-03-25T11:48:27;9.10;;;6.00;;
59416;SDS011;45222;52.458;20.914;2024-03-25T11:52:13;9.50;;;5.90;;
59416;SDS011;45222;52.458;20.914;2024-03-25T11:55:59;8.30;;;5.40;;
59416;SDS011;45222;52.458;20.914;2024-03-25T11:59:44;7.60;;;5.30;;
59416;SDS011;45222;52.458;20.914;2024-03-25T12:03:31;9.50;;;5.10;;
59416;SDS011;45222;52.458;20.914;2024-03-25T12:07:18;7.20;;;4.80;;
59416;SDS011;45222;52.458;20.914;2024-03-25T12:11:02;7.80;;;4.20;;
59416;SDS011;45222;52.458;20.914;2024-03-25T12:15:03;6.60;;;4.00;;
59416;SDS011;45222;52.458;20.914;2024-03-25T12:18:50;7.30;;;4.50;;
59416;SDS011;45222;52.458;20.914;2024-03-25T12:22:36;7.90;;;4.30;;
59416;SDS011;45222;52.458;20.914;2024-03-25T12:26:21;7.30;;;4.20;;
59416;SDS011;45222;52.458;20.914;2024-03-25T12:30:06;7.80;;;4.40;;
59416;SDS011;45222;52.458;20.914;2024-03-25T12:33:53;7.10;;;4.40;;
59416;SDS011;45222;52.458;20.914;2024-03-25T12:37:37;7.30;;;4.50;;
59416;SDS011;45222;52.458;20.914;2024-03-25T12:41:23;7.40;;;4.60;;
59416;SDS011;45222;52.458;20.914;2024-03-25T12:45:08;8.70;;;6.30;;
59416;SDS011;45222;52.458;20.914;2024-03-25T12:48:52;7.40;;;5.10;;
59416;SDS011;45222;52.458;20.914;2024-03-25T12:52:37;7.40;;;4.80;;
59416;SDS011;45222;52.458;20.914;2024-03-25T12:56:22;10.50;;;7.60;;
59416;SDS011;45222;52.458;20.914;2024-03-25T13:00:08;11.00;;;7.50;;
59416;SDS011;45222;52.458;20.914;2024-03-25T13:03:54;11.30;;;7.30;;
59416;SDS011;45222;52.458;20.914;2024-03-25T13:07:38;9.40;;;7.80;;
59416;SDS011;45222;52.458;20.914;2024-03-25T13:11:23;12.00;;;8.50;;
59416;SDS011;45222;52.458;20.914;2024-03-25T13:15:08;10.40;;;8.50;;
59416;SDS011;45222;52.458;20.914;2024-03-25T13:18:53;9.90;;;8.50;;
59416;SDS011;45222;52.458;20.914;2024-03-25T13:22:37;10.50;;;8.40;;
59416;SDS011;45222;52.458;20.914;2024-03-25T13:26:23;11.10;;;9.30;;
59416;SDS011;45222;52.458;20.914;2024-03-25T13:30:08;11.50;;;9.70;;
59416;SDS011;45222;52.458;20.914;2024-03-25T13:33:53;11.50;;;10.20;;
59416;SDS011;45222;52.458;20.914;2024-03-25T13:37:38;11.60;;;10.40;;
59416;SDS011;45222;52.458;20.914;2024-03-25T13:41:23;12.80;;;10.80;;
59416;SDS011;45222;52.458;20.914;2024-03-25T13:45:08;12.50;;;11.10;;
59416;SDS011;45222;52.458;20.914;2024-03-25T13:48:53;12.30;;;10.60;;
59416;SDS011;45222;52.458;20.914;2024-03-25T13:52:37;11.30;;;10.10;;
59416;SDS011;45222;52.458;20.914;2024-03-25T13:56:22;11.80;;;10.50;;
59416;SDS011;45222;52.458;20.914;2024-03-25T14:00:08;12.40;;;10.70;;
59416;SDS011;45222;52.458;20.914;2024-03-25T14:03:54;11.80;;;10.20;;
59416;SDS011;45222;52.458;20.914;2024-03-25T14:07:39;11.80;;;10.60;;
59416;SDS011;45222;52.458;20.914;2024-03-25T14:11:25;11.90;;;10.50;;
59416;SDS011;45222;52.458;20.914;2024-03-25T14:15:10;11.60;;;10.40;;
59416;SDS011;45222;52.458;20.914;2024-03-25T14:18:55;11.60;;;10.40;;
59416;SDS011;45222;52.458;20.914;2024-03-25T14:22:40;11.40;;;10.10;;
59416;SDS011;45222;52.458;20.914;2024-03-25T14:26:25;11.40;;;10.20;;
59416;SDS011;45222;52.458;20.914;2024-03-25T14:30:11;12.50;;;11.20;;
59416;SDS011;45222;52.458;20.914;2024-03-25T14:33:58;12.90;;;10.20;;
59416;SDS011;45222;52.458;20.914;2024-03-25T14:37:43;13.40;;;11.30;;
59416;SDS011;45222;52.458;20.914;2024-03-25T14:41:28;11.40;;;9.40;;
59416;SDS011;45222;52.458;20.914;2024-03-25T14:45:23;12.50;;;9.10;;
59416;SDS011;45222;52.458;20.914;2024-03-25T14:49:08;10.90;;;9.30;;
59416;SDS011;45222;52.458;20.914;2024-03-25T14:52:54;11.00;;;9.20;;
59416;SDS011;45222;52.458;20.914;2024-03-25T14:56:39;9.50;;;8.10;;
59416;SDS011;45222;52.458;20.914;2024-03-25T15:00:24;8.80;;;6.60;;
59416;SDS011;45222;52.458;20.914;2024-03-25T15:04:08;9.40;;;7.50;;
59416;SDS011;45222;52.458;20.914;2024-03-25T15:07:53;8.70;;;7.70;;
59416;SDS011;45222;52.458;20.914;2024-03-25T15:11:38;12.90;;;11.10;;
59416;SDS011;45222;52.458;20.914;2024-03-25T15:15:23;8.90;;;7.70;;
59416;SDS011;45222;52.458;20.914;2024-03-25T15:19:09;9.30;;;6.80;;
59416;SDS011;45222;52.458;20.914;2024-03-25T15:22:54;10.00;;;7.50;;
59416;SDS011;45222;52.458;20.914;2024-03-25T15:26:39;12.70;;;10.60;;
59416;SDS011;45222;52.458;20.914;2024-03-25T15:30:24;8.90;;;6.50;;
59416;SDS011;45222;52.458;20.914;2024-03-25T15:34:09;8.60;;;6.30;;
59416;SDS011;45222;52.458;20.914;2024-03-25T15:37:55;8.20;;;6.20;;
59416;SDS011;45222;52.458;20.914;2024-03-25T15:41:42;7.90;;;6.20;;
59416;SDS011;45222;52.458;20.914;2024-03-25T15:45:28;8.20;;;6.00;;
59416;SDS011;45222;52.458;20.914;2024-03-25T15:49:14;8.70;;;6.40;;
59416;SDS011;45222;52.458;20.914;2024-03-25T15:53:00;7.60;;;5.90;;
59416;SDS011;45222;52.458;20.914;2024-03-25T15:56:46;8.40;;;6.40;;
59416;SDS011;45222;52.458;20.914;2024-03-25T16:00:32;8.20;;;6.60;;
59416;SDS011;45222;52.458;20.914;2024-03-25T16:04:19;8.30;;;6.60;;
59416;SDS011;45222;52.458;20.914;2024-03-25T16:08:05;9.00;;;6.50;;
59416;SDS011;45222;52.458;20.914;2024-03-25T16:11:51;9.10;;;6.00;;
59416;SDS011;45222;52.458;20.914;2024-03-25T16:15:39;9.60;;;6.20;;
59416;SDS011;45222;52.458;20.914;2024-03-25T16:19:25;9.80;;;6.40;;
59416;SDS011;45222;52.458;20.914;2024-03-25T16:23:11;8.90;;;6.20;;
59416;SDS011;45222;52.458;20.914;2024-03-25T16:26:57;8.90;;;6.00;;
59416;SDS011;45222;52.458;20.914;2024-03-25T16:30:43;10.00;;;6.70;;
59416;SDS011;45222;52.458;20.914;2024-03-25T16:34:29;8.50;;;6.00;;
59416;SDS011;45222;52.458;20.914;2024-03-25T16:38:14;10.20;;;5.80;;
59416;SDS011;45222;52.458;20.914;2024-03-25T16:42:00;9.50;;;6.50;;
59416;SDS011;45222;52.458;20.914;2024-03-25T16:45:46;8.90;;;6.10;;
59416;SDS011;45222;52.458;20.914;2024-03-25T16:49:31;9.20;;;6.60;;
59416;SDS011;45222;52.458;20.914;2024-03-25T16:53:17;10.20;;;6.50;;
59416;SDS011;45222;52.458;20.914;2024-03-25T16:57:02;10.60;;;6.10;;
59416;SDS011;45222;52.458;20.914;2024-03-25T17:00:48;10.20;;;6.10;;
59416;SDS011;45222;52.458;20.914;2024-03-25T17:04:35;10.30;;;7.30;;
59416;SDS011;45222;52.458;20.914;2024-03-25T17:08:21;11.00;;;7.90;;
59416;SDS011;45222;52.458;20.914;2024-03-25T17:12:07;11.50;;;8.90;;
59416;SDS011;45222;52.458;20.914;2024-03-25T17:15:53;12.60;;;9.10;;
59416;SDS011;45222;52.458;20.914;2024-03-25T17:19:38;13.80;;;10.20;;
59416;SDS011;45222;52.458;20.914;2024-03-25T17:23:23;13.10;;;10.80;;
59416;SDS011;45222;52.458;20.914;2024-03-25T17:27:08;13.00;;;9.60;;
59416;SDS011;45222;52.458;20.914;2024-03-25T17:30:55;14.40;;;10.20;;
59416;SDS011;45222;52.458;20.914;2024-03-25T17:34:41;13.80;;;9.70;;
59416;SDS011;45222;52.458;20.914;2024-03-25T17:38:26;13.50;;;9.50;;
59416;SDS011;45222;52.458;20.914;2024-03-25T17:42:11;14.70;;;11.00;;
59416;SDS011;45222;52.458;20.914;2024-03-25T17:45:56;16.10;;;12.40;;
59416;SDS011;45222;52.458;20.914;2024-03-25T17:49:41;16.20;;;12.60;;
59416;SDS011;45222;52.458;20.914;2024-03-25T17:53:27;16.10;;;11.20;;
59416;SDS011;45222;52.458;20.914;2024-03-25T17:57:12;16.10;;;10.50;;
59416;SDS011;45222;52.458;20.914;2024-03-25T18:01:00;13.70;;;9.30;;
59416;SDS011;45222;52.458;20.914;2024-03-25T18:04:46;14.00;;;10.60;;
59416;SDS011;45222;52.458;20.914;2024-03-25T18:08:31;15.90;;;11.20;;
59416;SDS011;45222;52.458;20.914;2024-03-25T18:12:16;19.50;;;13.10;;
59416;SDS011;45222;52.458;20.914;2024-03-25T18:16:01;17.80;;;12.80;;
59416;SDS011;45222;52.458;20.914;2024-03-25T18:19:47;17.90;;;12.90;;
59416;SDS011;45222;52.458;20.914;2024-03-25T18:23:32;17.20;;;12.60;;
59416;SDS011;45222;52.458;20.914;2024-03-25T18:27:17;17.00;;;11.60;;
59416;SDS011;45222;52.458;20.914;2024-03-25T18:31:03;18.30;;;13.20;;
59416;SDS011;45222;52.458;20.914;2024-03-25T18:34:48;19.70;;;14.30;;
59416;SDS011;45222;52.458;20.914;2024-03-25T18:38:33;18.50;;;14.10;;
59416;SDS011;45222;52.458;20.914;2024-03-25T18:42:18;19.60;;;16.00;;
59416;SDS011;45222;52.458;20.914;2024-03-25T18:46:03;18.50;;;13.80;;
59416;SDS011;45222;52.458;20.914;2024-03-25T18:49:48;19.20;;;13.80;;
59416;SDS011;45222;52.458;20.914;2024-03-25T18:53:34;19.30;;;14.10;;
59416;SDS011;45222;52.458;20.914;2024-03-25T18:57:19;22.70;;;15.30;;
59416;SDS011;45222;52.458;20.914;2024-03-25T19:01:04;23.10;;;16.40;;
59416;SDS011;45222;52.458;20.914;2024-03-25T19:04:51;20.00;;;15.50;;
59416;SDS011;45222;52.458;20.914;2024-03-25T19:08:37;21.80;;;16.90;;
59416;SDS011;45222;52.458;20.914;2024-03-25T19:12:22;22.70;;;16.80;;
59416;SDS011;45222;52.458;20.914;2024-03-25T19:16:07;21.00;;;15.70;;
59416;SDS011;45222;52.458;20.914;2024-03-25T19:19:52;20.50;;;14.80;;
59416;SDS011;45222;52.458;20.914;2024-03-25T19:23:37;21.10;;;14.00;;
59416;SDS011;45222;52.458;20.914;2024-03-25T19:27:22;20.00;;;14.80;;
59416;SDS011;45222;52.458;20.914;2024-03-25T19:31:07;19.20;;;14.90;;
59416;SDS011;45222;52.458;20.914;2024-03-25T19:34:52;19.80;;;15.90;;
59416;SDS011;45222;52.458;20.914;2024-03-25T19:38:37;19.80;;;14.60;;
59416;SDS011;45222;52.458;20.914;2024-03-25T19:42:22;17.40;;;13.40;;
59416;SDS011;45222;52.458;20.914;2024-03-25T19:46:07;18.00;;;13.80;;
59416;SDS011;45222;52.458;20.914;2024-03-25T19:49:53;19.50;;;14.20;;
59416;SDS011;45222;52.458;20.914;2024-03-25T19:53:38;18.90;;;15.00;;
59416;SDS011;45222;52.458;20.914;2024-03-25T19:57:23;20.30;;;16.10;;
59416;SDS011;45222;52.458;20.914;2024-03-25T20:01:09;21.20;;;17.10;;
59416;SDS011;45222;52.458;20.914;2024-03-25T20:04:54;20.10;;;16.00;;
59416;SDS011;45222;52.458;20.914;2024-03-25T20:08:39;18.60;;;15.70;;
59416;SDS011;45222;52.458;20.914;2024-03-25T20:12:24;20.10;;;15.50;;
59416;SDS011;45222;52.458;20.914;2024-03-25T20:16:10;19.60;;;14.50;;
59416;SDS011;45222;52.458;20.914;2024-03-25T20:19:55;18.70;;;15.40;;
59416;SDS011;45222;52.458;20.914;2024-03-25T20:23:40;21.80;;;16.30;;
59416;SDS011;45222;52.458;20.914;2024-03-25T20:27:25;22.20;;;16.60;;
59416;SDS011;45222;52.458;20.914;2024-03-25T20:31:11;24.30;;;17.40;;
59416;SDS011;45222;52.458;20.914;2024-03-25T20:34:56;25.90;;;19.40;;
59416;SDS011;45222;52.458;20.914;2024-03-25T20:38:47;24.40;;;18.30;;
59416;SDS011;45222;52.458;20.914;2024-03-25T20:42:33;23.80;;;17.40;;
59416;SDS011;45222;52.458;20.914;2024-03-25T20:46:18;23.50;;;18.20;;
59416;SDS011;45222;52.458;20.914;2024-03-25T20:50:04;25.70;;;18.60;;
59416;SDS011;45222;52.458;20.914;2024-03-25T20:53:51;27.60;;;19.70;;
59416;SDS011;45222;52.458;20.914;2024-03-25T20:57:36;25.50;;;19.70;;
59416;SDS011;45222;52.458;20.914;2024-03-25T21:01:21;26.70;;;19.30;;
59416;SDS011;45222;52.458;20.914;2024-03-25T21:05:07;26.90;;;19.40;;
59416;SDS011;45222;52.458;20.914;2024-03-25T21:08:54;29.70;;;20.10;;
59416;SDS011;45222;52.458;20.914;2024-03-25T21:12:39;25.30;;;18.60;;
59416;SDS011;45222;52.458;20.914;2024-03-25T21:16:24;23.20;;;18.60;;
59416;SDS011;45222;52.458;20.914;2024-03-25T21:20:10;24.20;;;18.10;;
59416;SDS011;45222;52.458;20.914;2024-03-25T21:23:57;24.50;;;18.90;;
59416;SDS011;45222;52.458;20.914;2024-03-25T21:27:42;26.80;;;22.70;;
59416;SDS011;45222;52.458;20.914;2024-03-25T21:31:28;27.10;;;21.30;;
59416;SDS011;45222;52.458;20.914;2024-03-25T21:35:13;27.20;;;13.80;;
59416;SDS011;45222;52.458;20.914;2024-03-25T21:38:58;32.20;;;25.20;;
59416;SDS011;45222;52.458;20.914;2024-03-25T21:42:43;36.80;;;27.80;;
59416;SDS011;45222;52.458;20.914;2024-03-25T21:46:28;35.10;;;25.60;;
59416;SDS011;45222;52.458;20.914;2024-03-25T21:50:13;28.50;;;23.70;;